Weather at Penn Yan Airport

Public forecast

Using degrees Fahrenheit for public forecast. Weather courtesy of forecast.io.

Current aviation weather report (METAR) for Penn Yan Airport

Retrieved 2020/11/23 15:04 UTC (0 seconds ago):

KPEO 231504Z AUTO 27010KT 10SM SCT024 04/M01 A3008 RMK AO2 T00391011

Closest aviation forecast (TAF) to Penn Yan Airport

Closest forecast is Ithaca Tompkins Regional Airport, 27.7 nm (51.3 km) ESE. Retrieved 2020/11/23 12:27 UTC (3 hours ago):

TAF KITH 231125Z 2312/2412 30012G22KT P6SM OVC012 FM231700 30013G21KT P6SM BKN025 FM231900 31013G21KT P6SM BKN035 FM232300 30008KT P6SM BKN025 FM240600 30010KT P6SM OVC018